Time;durP1;ratioP1;P1;durP2;ratioP2;P2;SDS_P1;SDS_P2;PMS_P1;PMS_P2;Temp;Humidity;BMP_temperature;BMP_pressure;BME280_temperature;BME280_humidity;BME280_pressure;Samples;Min_cycle;Max_cycle;Signal;HPM_P1;HPM_P2
2021/06/30 00:02:15;;;;;;;13.77;7.35;;;;;;;;;;5075085;28;20100;-73
2021/06/30 00:04:41;;;;;;;10.85;7.05;;;;;;;;;;5074745;28;20024;-74
2021/06/30 00:07:08;;;;;;;11.05;7.72;;;;;;;;;;5074824;28;20104;-73
2021/06/30 00:09:34;;;;;;;12.73;7.38;;;;;;;;;;5074643;28;20032;-73
2021/06/30 00:12:00;;;;;;;10.50;7.22;;;;;;;;;;5074842;28;20029;-74
2021/06/30 00:14:26;;;;;;;11.80;7.30;;;;;;;;;;5074496;28;20051;-73
2021/06/30 00:16:53;;;;;;;12.07;7.32;;;;;;;;;;5074827;28;20033;-73
2021/06/30 00:19:20;;;;;;;15.07;7.93;;;;;;;;;;5074130;28;20032;-73
2021/06/30 00:21:46;;;;;;;11.63;6.95;;;;;;;;;;5090021;28;20107;-74
2021/06/30 00:24:12;;;;;;;12.93;6.93;;;;;;;;;;5072923;28;20391;-73
2021/06/30 00:26:38;;;;;;;9.85;6.90;;;;;;;;;;5074437;28;20032;-74
2021/06/30 00:29:08;;;;;;;10.02;7.30;;;;;;;;;;5074224;28;20039;-73
2021/06/30 00:31:34;;;;;;;11.77;7.18;;;;;;;;;;5074528;28;20025;-74
2021/06/30 00:34:04;;;;;;;13.13;7.28;;;;;;;;;;5074512;28;20016;-73
2021/06/30 00:36:31;;;;;;;23.45;7.22;;;;;;;;;;5074236;28;20082;-72
2021/06/30 00:38:57;;;;;;;10.52;6.78;;;;;;;;;;5074159;28;20013;-73
2021/06/30 00:41:23;;;;;;;13.40;8.25;;;;;;;;;;5074278;28;20040;-74
2021/06/30 00:43:49;;;;;;;9.52;6.75;;;;;;;;;;5074077;28;20021;-73
2021/06/30 00:46:15;;;;;;;12.77;7.47;;;;;;;;;;5074279;28;20099;-73
2021/06/30 00:48:41;;;;;;;13.10;8.02;;;;;;;;;;5074001;28;20508;-73
2021/06/30 00:51:07;;;;;;;15.63;7.28;;;;;;;;;;5073959;28;20422;-74
2021/06/30 00:53:33;;;;;;;12.18;7.07;;;;;;;;;;5073801;28;20024;-73
2021/06/30 00:55:59;;;;;;;11.82;6.82;;;;;;;;;;5073899;28;20040;-73
2021/06/30 00:58:25;;;;;;;13.70;7.68;;;;;;;;;;5073946;28;20031;-73
2021/06/30 01:03:55;;;;;;;8.80;6.70;;;;;;;;;;5073649;28;20031;-73
2021/06/30 01:06:21;;;;;;;12.02;6.78;;;;;;;;;;5073871;28;20055;-74
2021/06/30 01:08:48;;;;;;;10.82;7.10;;;;;;;;;;5073383;28;20020;-73
2021/06/30 01:11:15;;;;;;;11.65;6.88;;;;;;;;;;5073720;28;20391;-73
2021/06/30 01:13:41;;;;;;;11.95;7.90;;;;;;;;;;5073394;28;20103;-73
2021/06/30 01:16:08;;;;;;;10.90;7.47;;;;;;;;;;5073595;28;20023;-73
2021/06/30 01:18:34;;;;;;;11.63;7.53;;;;;;;;;;5073177;28;20028;-73
2021/06/30 01:21:01;;;;;;;14.60;8.20;;;;;;;;;;5060429;28;20575;-73
2021/06/30 01:23:28;;;;;;;11.15;7.63;;;;;;;;;;5052194;28;20593;-73
2021/06/30 01:25:54;;;;;;;11.90;7.68;;;;;;;;;;5072275;28;20028;-74
2021/06/30 01:28:20;;;;;;;11.70;7.78;;;;;;;;;;5073319;28;20020;-73
2021/06/30 01:30:48;;;;;;;14.38;8.43;;;;;;;;;;5073112;28;20029;-73
2021/06/30 01:33:14;;;;;;;12.57;7.30;;;;;;;;;;5073100;28;20086;-74
2021/06/30 01:35:41;;;;;;;12.52;7.88;;;;;;;;;;5072914;28;20055;-73
2021/06/30 01:38:07;;;;;;;12.07;7.47;;;;;;;;;;5073213;28;20031;-74
2021/06/30 01:40:33;;;;;;;13.63;7.75;;;;;;;;;;5072762;28;20028;-73
2021/06/30 01:42:59;;;;;;;11.77;7.72;;;;;;;;;;5073306;28;20101;-73
2021/06/30 01:45:26;;;;;;;11.05;8.15;;;;;;;;;;5072773;28;20024;-73
2021/06/30 01:47:53;;;;;;;13.43;8.23;;;;;;;;;;5072941;28;20016;-73
2021/06/30 01:50:19;;;;;;;12.95;7.95;;;;;;;;;;5072694;28;20032;-73
2021/06/30 01:52:45;;;;;;;11.05;7.80;;;;;;;;;;5072952;28;20052;-73
2021/06/30 01:55:12;;;;;;;11.10;7.90;;;;;;;;;;5088211;28;20117;-72
2021/06/30 01:57:40;;;;;;;11.73;7.63;;;;;;;;;;5072754;28;20055;-72
2021/06/30 02:00:06;;;;;;;11.73;7.95;;;;;;;;;;5072404;28;20051;-73
2021/06/30 02:02:32;;;;;;;13.60;8.48;;;;;;;;;;5072741;28;20025;-72
2021/06/30 02:05:15;;;;;;;12.05;7.38;;;;;;;;;;5072538;28;20035;-72
2021/06/30 02:07:48;;;;;;;11.43;8.35;;;;;;;;;;5071475;28;20059;-72
2021/06/30 02:10:15;;;;;;;14.98;8.68;;;;;;;;;;5072285;28;20082;-73
2021/06/30 02:12:41;;;;;;;13.80;8.63;;;;;;;;;;5072669;28;20032;-73
2021/06/30 02:15:09;;;;;;;13.93;8.13;;;;;;;;;;5072347;28;20024;-72
2021/06/30 02:17:36;;;;;;;13.32;8.10;;;;;;;;;;5072495;28;20031;-73
2021/06/30 02:20:02;;;;;;;13.07;8.75;;;;;;;;;;5071712;28;20037;-72
2021/06/30 02:22:28;;;;;;;10.13;8.05;;;;;;;;;;5072527;28;20028;-73
2021/06/30 02:24:57;;;;;;;13.20;8.65;;;;;;;;;;5071774;28;20024;-73
2021/06/30 02:27:24;;;;;;;14.38;9.00;;;;;;;;;;5072320;28;20016;-72
2021/06/30 02:29:50;;;;;;;14.02;7.78;;;;;;;;;;5072265;28;20502;-72
2021/06/30 02:32:16;;;;;;;10.95;8.25;;;;;;;;;;5087586;28;20028;-72
2021/06/30 02:34:42;;;;;;;12.32;7.68;;;;;;;;;;5072048;28;20494;-73
2021/06/30 02:37:08;;;;;;;10.68;7.93;;;;;;;;;;5071154;28;20040;-73
2021/06/30 02:39:34;;;;;;;12.45;8.60;;;;;;;;;;5071907;28;20033;-73
2021/06/30 02:42:00;;;;;;;10.82;8.05;;;;;;;;;;5072220;28;20056;-73
2021/06/30 02:44:27;;;;;;;11.23;7.93;;;;;;;;;;5072264;28;20024;-73
2021/06/30 02:46:53;;;;;;;13.25;8.23;;;;;;;;;;5072140;28;20021;-72
2021/06/30 02:49:19;;;;;;;12.93;8.65;;;;;;;;;;5072139;28;20025;-73
2021/06/30 02:51:45;;;;;;;12.00;7.80;;;;;;;;;;5072050;28;20024;-73
2021/06/30 02:54:12;;;;;;;13.25;8.05;;;;;;;;;;5072280;28;20078;-73
2021/06/30 02:56:38;;;;;;;12.25;8.35;;;;;;;;;;5071685;28;20055;-73
2021/06/30 02:59:04;;;;;;;12.57;8.75;;;;;;;;;;5072166;28;20102;-73
2021/06/30 03:01:30;;;;;;;11.60;7.50;;;;;;;;;;5071884;28;20040;-73
2021/06/30 03:03:56;;;;;;;11.07;7.72;;;;;;;;;;5072150;28;20021;-73
2021/06/30 03:06:22;;;;;;;13.77;7.90;;;;;;;;;;5070600;28;20059;-73
2021/06/30 03:08:50;;;;;;;11.85;7.80;;;;;;;;;;5072196;28;20111;-73
2021/06/30 03:11:16;;;;;;;12.38;8.10;;;;;;;;;;5071842;28;20060;-73
2021/06/30 03:13:42;;;;;;;10.88;8.50;;;;;;;;;;5072074;28;20111;-74
2021/06/30 03:16:08;;;;;;;13.05;8.18;;;;;;;;;;5071412;28;20024;-74
2021/06/30 03:18:34;;;;;;;11.93;8.00;;;;;;;;;;5072009;28;20024;-74
2021/06/30 03:21:00;;;;;;;11.43;8.20;;;;;;;;;;5071673;28;20074;-74
2021/06/30 03:23:27;;;;;;;16.65;8.65;;;;;;;;;;5073949;28;20021;-74
2021/06/30 03:25:53;;;;;;;11.30;7.97;;;;;;;;;;5075420;28;20029;-74
2021/06/30 03:28:19;;;;;;;12.93;8.40;;;;;;;;;;5075531;28;20025;-74
2021/06/30 03:30:45;;;;;;;12.80;8.25;;;;;;;;;;5075237;28;20048;-73
2021/06/30 03:33:11;;;;;;;9.95;7.30;;;;;;;;;;5075514;28;20025;-73
2021/06/30 03:35:37;;;;;;;11.35;7.85;;;;;;;;;;5075230;28;20028;-74
2021/06/30 03:38:04;;;;;;;10.68;7.90;;;;;;;;;;5075469;28;20025;-74
2021/06/30 03:40:30;;;;;;;12.38;8.68;;;;;;;;;;5075054;28;20032;-73
2021/06/30 03:42:56;;;;;;;11.32;7.65;;;;;;;;;;5075409;28;20024;-74
2021/06/30 03:45:22;;;;;;;10.43;8.13;;;;;;;;;;5075006;28;20020;-73
2021/06/30 03:47:48;;;;;;;10.30;7.60;;;;;;;;;;5075281;28;20025;-74
2021/06/30 03:50:16;;;;;;;9.35;7.13;;;;;;;;;;5075049;28;20031;-74
2021/06/30 03:52:42;;;;;;;10.00;7.43;;;;;;;;;;5075171;28;20031;-74
2021/06/30 03:55:08;;;;;;;10.15;7.40;;;;;;;;;;5074858;28;20032;-74
2021/06/30 03:57:35;;;;;;;10.48;7.25;;;;;;;;;;5074913;28;20499;-74
2021/06/30 04:00:02;;;;;;;9.50;6.63;;;;;;;;;;5090313;28;20025;-73
2021/06/30 04:02:28;;;;;;;13.07;7.95;;;;;;;;;;5074963;28;20035;-73
2021/06/30 04:04:54;;;;;;;12.73;7.32;;;;;;;;;;5075017;28;20070;-74
2021/06/30 04:07:20;;;;;;;9.23;7.45;;;;;;;;;;5074759;28;20020;-74
2021/06/30 04:09:46;;;;;;;11.07;7.35;;;;;;;;;;5074883;28;20146;-74
2021/06/30 04:12:12;;;;;;;10.60;7.95;;;;;;;;;;5074553;28;20036;-74
2021/06/30 04:14:38;;;;;;;10.85;7.13;;;;;;;;;;5074902;28;20062;-74
2021/06/30 04:17:04;;;;;;;15.43;7.13;;;;;;;;;;5074417;28;20033;-74
2021/06/30 04:19:30;;;;;;;12.25;7.47;;;;;;;;;;5074177;28;20407;-73
2021/06/30 04:21:56;;;;;;;10.70;7.38;;;;;;;;;;5072490;28;20171;-74
2021/06/30 04:24:22;;;;;;;10.80;7.10;;;;;;;;;;5074639;28;20012;-74
2021/06/30 04:26:48;;;;;;;11.27;7.15;;;;;;;;;;5075059;28;20028;-73
2021/06/30 04:29:14;;;;;;;12.70;7.25;;;;;;;;;;5075321;28;20070;-74
2021/06/30 04:31:40;;;;;;;11.32;7.75;;;;;;;;;;5074266;28;20017;-74
2021/06/30 04:34:06;;;;;;;10.60;7.78;;;;;;;;;;5074336;28;20039;-74
2021/06/30 04:36:33;;;;;;;11.10;7.65;;;;;;;;;;5089843;28;20028;-74
2021/06/30 04:39:02;;;;;;;14.18;8.15;;;;;;;;;;5057831;28;20078;-74
2021/06/30 04:41:28;;;;;;;11.73;7.65;;;;;;;;;;5067758;28;20028;-74
2021/06/30 04:43:54;;;;;;;10.98;6.68;;;;;;;;;;5074407;28;20050;-74
2021/06/30 04:46:20;;;;;;;9.88;7.43;;;;;;;;;;5074081;28;20032;-74
2021/06/30 04:48:47;;;;;;;8.77;7.07;;;;;;;;;;5074198;28;20070;-74
2021/06/30 04:51:13;;;;;;;12.57;7.18;;;;;;;;;;5074526;28;20029;-74
2021/06/30 04:53:39;;;;;;;10.45;7.25;;;;;;;;;;5074000;28;20079;-73
2021/06/30 04:56:05;;;;;;;10.70;7.88;;;;;;;;;;5072453;28;20060;-73
2021/06/30 04:58:31;;;;;;;10.60;7.82;;;;;;;;;;5073778;28;20040;-74
2021/06/30 05:00:57;;;;;;;11.82;8.07;;;;;;;;;;5073650;28;20025;-73
2021/06/30 05:03:27;;;;;;;11.77;7.93;;;;;;;;;;5089392;28;20493;-73
2021/06/30 05:05:56;;;;;;;11.82;7.72;;;;;;;;;;5073020;28;20033;-74
2021/06/30 05:08:23;;;;;;;10.63;7.47;;;;;;;;;;5072704;28;20096;-74
2021/06/30 05:10:50;;;;;;;11.07;8.35;;;;;;;;;;5071978;28;20070;-73
2021/06/30 05:13:16;;;;;;;16.17;8.65;;;;;;;;;;5072747;28;20020;-73
2021/06/30 05:15:42;;;;;;;11.68;7.90;;;;;;;;;;5073463;28;20107;-74
2021/06/30 05:18:09;;;;;;;10.75;7.85;;;;;;;;;;5073375;28;20495;-74
2021/06/30 05:20:35;;;;;;;10.40;7.45;;;;;;;;;;5079255;28;20032;-72
2021/06/30 05:23:01;;;;;;;11.90;8.38;;;;;;;;;;5059071;28;20031;-74
2021/06/30 05:25:27;;;;;;;15.35;8.77;;;;;;;;;;5072813;28;20052;-73
2021/06/30 05:27:53;;;;;;;12.40;7.72;;;;;;;;;;5072409;28;20028;-74
2021/06/30 05:30:19;;;;;;;10.98;7.78;;;;;;;;;;5072634;28;20091;-75
2021/06/30 05:32:45;;;;;;;10.82;7.88;;;;;;;;;;5072401;28;20483;-73
2021/06/30 05:35:11;;;;;;;12.00;8.05;;;;;;;;;;5072671;28;20039;-73
2021/06/30 05:37:38;;;;;;;10.95;7.32;;;;;;;;;;5072840;28;20055;-73
2021/06/30 05:40:05;;;;;;;11.80;8.40;;;;;;;;;;5072422;28;20029;-72
2021/06/30 05:42:31;;;;;;;9.48;7.22;;;;;;;;;;5072209;28;20418;-73
2021/06/30 05:44:57;;;;;;;9.65;7.22;;;;;;;;;;5072350;28;20020;-73
2021/06/30 05:47:23;;;;;;;12.75;8.02;;;;;;;;;;5072469;28;20028;-73
2021/06/30 05:49:49;;;;;;;13.63;8.65;;;;;;;;;;5072673;28;20029;-73
2021/06/30 05:52:15;;;;;;;11.10;7.63;;;;;;;;;;5072598;28;20024;-74
2021/06/30 05:54:41;;;;;;;12.73;8.32;;;;;;;;;;5072616;28;20510;-74
2021/06/30 05:57:08;;;;;;;10.52;7.53;;;;;;;;;;5072538;28;20040;-74
2021/06/30 05:59:34;;;;;;;10.82;7.90;;;;;;;;;;5072851;28;20048;-74
2021/06/30 06:02:00;;;;;;;13.02;7.95;;;;;;;;;;5071524;28;20016;-74
2021/06/30 06:04:26;;;;;;;13.23;8.48;;;;;;;;;;5064385;28;20518;-74
2021/06/30 06:06:58;;;;;;;11.68;7.85;;;;;;;;;;5058849;28;20029;-73
2021/06/30 06:09:24;;;;;;;11.05;8.32;;;;;;;;;;5057964;28;20021;-73
2021/06/30 06:11:50;;;;;;;12.85;8.13;;;;;;;;;;5072185;28;20028;-73
2021/06/30 06:14:17;;;;;;;11.38;8.40;;;;;;;;;;5070108;28;20052;-74
2021/06/30 06:16:43;;;;;;;12.80;7.93;;;;;;;;;;5072095;28;20036;-73
2021/06/30 06:19:09;;;;;;;11.60;8.20;;;;;;;;;;5066254;28;20505;-74
2021/06/30 06:21:35;;;;;;;14.75;8.98;;;;;;;;;;5056451;28;20066;-74
2021/06/30 06:24:02;;;;;;;10.88;8.45;;;;;;;;;;5072771;28;20017;-74
2021/06/30 06:26:28;;;;;;;13.32;8.70;;;;;;;;;;5072302;28;20024;-74
2021/06/30 06:28:54;;;;;;;12.20;8.68;;;;;;;;;;5071971;28;20024;-74
2021/06/30 06:31:20;;;;;;;10.88;7.90;;;;;;;;;;5071193;28;20031;-73
2021/06/30 06:33:46;;;;;;;11.80;7.78;;;;;;;;;;5071258;28;20028;-73
2021/06/30 06:36:13;;;;;;;13.38;8.60;;;;;;;;;;5071248;28;20029;-73
2021/06/30 06:38:40;;;;;;;12.05;8.45;;;;;;;;;;5072013;28;20024;-74
2021/06/30 06:41:06;;;;;;;12.88;8.35;;;;;;;;;;5071113;28;20111;-74
2021/06/30 06:43:34;;;;;;;13.05;8.68;;;;;;;;;;5068725;28;20021;-73
2021/06/30 06:46:00;;;;;;;13.40;8.60;;;;;;;;;;5071298;28;20025;-74
2021/06/30 06:48:26;;;;;;;11.80;8.48;;;;;;;;;;5070639;28;20017;-75
2021/06/30 06:50:52;;;;;;;16.70;8.18;;;;;;;;;;5070251;28;20052;-74
2021/06/30 06:53:18;;;;;;;13.48;8.80;;;;;;;;;;5071103;28;20425;-73
2021/06/30 06:55:44;;;;;;;12.95;8.70;;;;;;;;;;5071823;28;20033;-72
2021/06/30 06:58:10;;;;;;;11.63;7.13;;;;;;;;;;5073101;28;20070;-74
2021/06/30 07:00:37;;;;;;;11.23;8.13;;;;;;;;;;5075776;28;20390;-74
2021/06/30 07:03:03;;;;;;;10.77;7.65;;;;;;;;;;5075011;28;20108;-74
2021/06/30 07:05:29;;;;;;;10.88;7.75;;;;;;;;;;5075822;28;20028;-73
2021/06/30 07:07:55;;;;;;;11.40;7.85;;;;;;;;;;5068628;28;20095;-73
2021/06/30 07:10:21;;;;;;;10.25;7.53;;;;;;;;;;5075997;28;20103;-73
2021/06/30 07:12:47;;;;;;;10.32;7.85;;;;;;;;;;5075680;28;20028;-72
2021/06/30 07:15:13;;;;;;;10.98;8.00;;;;;;;;;;5075232;28;20487;-73
2021/06/30 07:17:39;;;;;;;10.63;7.55;;;;;;;;;;5075349;28;20028;-73
2021/06/30 07:20:06;;;;;;;12.05;7.75;;;;;;;;;;5074686;28;20024;-74
2021/06/30 07:22:33;;;;;;;14.55;8.75;;;;;;;;;;5074679;28;20096;-73
2021/06/30 07:24:59;;;;;;;13.52;9.77;;;;;;;;;;5074976;28;20024;-74
2021/06/30 07:27:25;;;;;;;10.70;8.50;;;;;;;;;;5075155;28;20095;-73
2021/06/30 07:29:51;;;;;;;13.55;7.35;;;;;;;;;;5074655;28;20029;-74
2021/06/30 07:32:17;;;;;;;13.45;9.02;;;;;;;;;;5073853;28;20028;-73
2021/06/30 07:34:43;;;;;;;11.30;7.80;;;;;;;;;;5075276;28;20070;-74
2021/06/30 07:37:09;;;;;;;11.50;7.20;;;;;;;;;;5075445;28;20100;-74
2021/06/30 07:39:36;;;;;;;10.80;8.00;;;;;;;;;;5075065;28;20063;-73
2021/06/30 07:42:02;;;;;;;12.68;7.80;;;;;;;;;;5077533;28;20021;-73
2021/06/30 07:44:28;;;;;;;13.00;7.85;;;;;;;;;;5074645;28;20025;-73
2021/06/30 07:46:54;;;;;;;12.32;7.95;;;;;;;;;;5075898;28;20452;-73
2021/06/30 07:49:20;;;;;;;11.07;8.18;;;;;;;;;;5074379;28;20025;-73
2021/06/30 07:51:47;;;;;;;13.10;7.60;;;;;;;;;;5075108;28;20061;-73
2021/06/30 07:54:13;;;;;;;10.55;7.85;;;;;;;;;;5074923;28;20424;-74
2021/06/30 07:56:39;;;;;;;18.50;8.73;;;;;;;;;;5073482;28;20051;-73
2021/06/30 07:59:06;;;;;;;13.88;8.38;;;;;;;;;;5078624;28;20028;-74
2021/06/30 08:01:32;;;;;;;10.95;7.88;;;;;;;;;;5090408;28;20136;-73
2021/06/30 08:03:59;;;;;;;10.32;7.13;;;;;;;;;;5076380;28;20020;-74
2021/06/30 08:06:25;;;;;;;13.68;8.63;;;;;;;;;;5072330;28;20473;-73
2021/06/30 08:08:51;;;;;;;12.23;8.05;;;;;;;;;;5073260;28;20031;-74
2021/06/30 08:11:19;;;;;;;10.60;6.63;;;;;;;;;;5072768;28;20173;-73
2021/06/30 08:13:45;;;;;;;11.43;7.22;;;;;;;;;;5072388;28;20024;-73
2021/06/30 08:16:11;;;;;;;12.57;7.13;;;;;;;;;;5073269;28;20031;-73
2021/06/30 08:18:37;;;;;;;9.32;6.57;;;;;;;;;;5073589;28;20029;-74
2021/06/30 08:21:04;;;;;;;9.48;6.35;;;;;;;;;;5061028;28;20025;-74
2021/06/30 08:23:30;;;;;;;14.40;8.30;;;;;;;;;;5068719;28;20078;-74
2021/06/30 08:25:56;;;;;;;9.65;6.93;;;;;;;;;;5072264;28;20100;-74
2021/06/30 08:28:26;;;;;;;11.20;6.70;;;;;;;;;;5073520;28;20031;-73
2021/06/30 08:30:53;;;;;;;9.23;6.65;;;;;;;;;;5073417;28;20414;-73
2021/06/30 08:33:22;;;;;;;9.88;6.78;;;;;;;;;;5073508;28;20077;-74
2021/06/30 08:36:06;;;;;;;8.73;6.28;;;;;;;;;;5058184;28;20074;-73
2021/06/30 08:38:32;;;;;;;9.27;6.25;;;;;;;;;;5072563;28;20074;-73
2021/06/30 08:40:59;;;;;;;9.15;6.78;;;;;;;;;;5064223;28;20060;-72
2021/06/30 08:43:25;;;;;;;10.32;6.15;;;;;;;;;;5061977;28;20024;-73
2021/06/30 08:45:52;;;;;;;10.43;7.10;;;;;;;;;;5066552;28;20049;-73
2021/06/30 08:48:18;;;;;;;10.70;6.53;;;;;;;;;;5067214;28;20451;-73
2021/06/30 08:50:45;;;;;;;9.75;6.40;;;;;;;;;;5066940;28;20032;-73
2021/06/30 08:53:15;;;;;;;7.88;5.90;;;;;;;;;;5068888;28;20498;-74
2021/06/30 08:58:24;;;;;;;11.07;5.85;;;;;;;;;;5108634;27;20805;-73
2021/06/30 09:00:51;;;;;;;9.07;6.60;;;;;;;;;;5106725;28;20038;-73
2021/06/30 09:03:20;;;;;;;9.07;6.35;;;;;;;;;;5111558;28;20066;-75
2021/06/30 09:08:19;;;;;;;9.05;6.70;;;;;;;;;;5104014;28;20036;-75
2021/06/30 09:10:45;;;;;;;8.77;6.43;;;;;;;;;;5105798;28;20080;-76
2021/06/30 09:13:26;;;;;;;8.80;6.93;;;;;;;;;;5103582;28;20121;-75
2021/06/30 09:16:02;;;;;;;10.13;7.10;;;;;;;;;;5108914;28;20499;-75
2021/06/30 09:18:41;;;;;;;9.45;6.40;;;;;;;;;;5101495;28;20115;-74
2021/06/30 09:21:19;;;;;;;8.88;6.65;;;;;;;;;;5112242;28;20074;-74
2021/06/30 09:24:02;;;;;;;8.45;7.05;;;;;;;;;;5109590;28;20385;-75
2021/06/30 09:26:30;;;;;;;9.18;6.72;;;;;;;;;;5112451;28;20034;-75
2021/06/30 09:29:02;;;;;;;10.23;7.00;;;;;;;;;;5101101;28;20386;-76
2021/06/30 09:31:28;;;;;;;13.02;7.25;;;;;;;;;;5105350;28;20088;-76
2021/06/30 09:33:56;;;;;;;9.25;7.00;;;;;;;;;;5118266;28;20020;-75
2021/06/30 09:36:23;;;;;;;10.50;7.68;;;;;;;;;;5110804;28;20038;-75
2021/06/30 09:38:49;;;;;;;9.30;6.93;;;;;;;;;;5104430;28;20031;-74
2021/06/30 09:41:18;;;;;;;9.63;7.13;;;;;;;;;;5105804;28;20109;-75
2021/06/30 09:43:44;;;;;;;10.65;6.35;;;;;;;;;;5111291;28;20008;-75
2021/06/30 09:46:18;;;;;;;9.20;6.68;;;;;;;;;;5122192;28;20089;-75
2021/06/30 09:48:52;;;;;;;9.20;6.65;;;;;;;;;;5114011;28;20429;-74
2021/06/30 09:51:19;;;;;;;9.55;6.63;;;;;;;;;;5113267;27;20399;-75
2021/06/30 09:53:45;;;;;;;10.90;6.93;;;;;;;;;;5103448;28;20121;-75
2021/06/30 09:56:34;;;;;;;10.05;6.80;;;;;;;;;;5111692;28;20473;-75
2021/06/30 09:59:01;;;;;;;10.15;7.20;;;;;;;;;;5114763;27;20098;-76
2021/06/30 10:01:27;;;;;;;8.75;7.18;;;;;;;;;;5106759;28;20023;-76
2021/06/30 10:03:53;;;;;;;12.73;7.18;;;;;;;;;;5111370;28;20020;-75
2021/06/30 10:06:26;;;;;;;10.27;7.38;;;;;;;;;;5119879;28;20028;-75
2021/06/30 10:08:53;;;;;;;11.98;8.07;;;;;;;;;;5109228;28;20385;-75
2021/06/30 10:11:19;;;;;;;13.27;7.93;;;;;;;;;;5097692;28;20027;-75
2021/06/30 10:13:45;;;;;;;10.30;7.55;;;;;;;;;;5101057;28;20052;-76
2021/06/30 10:16:12;;;;;;;9.68;7.00;;;;;;;;;;5094342;28;20024;-76
2021/06/30 10:18:38;;;;;;;9.43;7.20;;;;;;;;;;5101624;28;20081;-76
2021/06/30 10:21:04;;;;;;;9.65;7.60;;;;;;;;;;5093608;28;20486;-75
2021/06/30 10:23:30;;;;;;;10.82;7.00;;;;;;;;;;5096351;28;20055;-76
2021/06/30 10:25:56;;;;;;;10.73;6.90;;;;;;;;;;5096019;28;20091;-76
2021/06/30 10:28:22;;;;;;;9.68;6.88;;;;;;;;;;5107624;28;20053;-76
2021/06/30 10:30:53;;;;;;;10.32;7.00;;;;;;;;;;5098906;28;20030;-76
2021/06/30 10:33:38;;;;;;;7.95;6.82;;;;;;;;;;5098298;28;20514;-74
2021/06/30 10:36:05;;;;;;;13.85;7.35;;;;;;;;;;5092688;28;20068;-73
2021/06/30 10:39:06;;;;;;;9.23;7.00;;;;;;;;;;5104138;28;20084;-73
2021/06/30 10:41:38;;;;;;;9.68;6.72;;;;;;;;;;5049582;28;20112;-72
2021/06/30 10:44:18;;;;;;;8.93;7.05;;;;;;;;;;5085561;28;20051;-74
2021/06/30 10:46:44;;;;;;;9.23;7.22;;;;;;;;;;5099267;28;20032;-75
2021/06/30 10:49:16;;;;;;;8.35;6.68;;;;;;;;;;5102701;28;20475;-73
2021/06/30 10:51:43;;;;;;;8.82;6.40;;;;;;;;;;5102310;28;20028;-73
2021/06/30 10:54:28;;;;;;;9.45;7.15;;;;;;;;;;5099109;28;20020;-74
2021/06/30 10:57:13;;;;;;;8.20;6.75;;;;;;;;;;5100559;28;20032;-73
2021/06/30 10:59:57;;;;;;;8.57;6.90;;;;;;;;;;5095622;28;20020;-74
2021/06/30 11:02:23;;;;;;;9.95;7.88;;;;;;;;;;5105423;28;20024;-74
2021/06/30 11:04:49;;;;;;;8.48;6.07;;;;;;;;;;5091372;28;20612;-73
2021/06/30 11:07:36;;;;;;;9.90;6.38;;;;;;;;;;5096902;28;20024;-74
2021/06/30 11:10:18;;;;;;;9.07;6.78;;;;;;;;;;5097916;28;20024;-74
2021/06/30 11:12:54;;;;;;;9.52;7.35;;;;;;;;;;5101458;28;20020;-74
2021/06/30 11:15:46;;;;;;;9.63;7.88;;;;;;;;;;5105966;28;20035;-74
2021/06/30 11:18:12;;;;;;;10.10;7.20;;;;;;;;;;5094813;28;20048;-73
2021/06/30 11:20:47;;;;;;;8.52;6.45;;;;;;;;;;5098845;28;20381;-74
2021/06/30 11:23:18;;;;;;;9.43;7.40;;;;;;;;;;5099783;28;20024;-73
2021/06/30 11:25:44;;;;;;;9.88;6.75;;;;;;;;;;5105905;28;20024;-74
2021/06/30 11:28:29;;;;;;;9.18;7.25;;;;;;;;;;5108149;28;20028;-74
2021/06/30 11:30:55;;;;;;;;;;;;;;;;;;5096833;28;20093;-74
2021/06/30 11:33:21;;;;;;;8.43;7.15;;;;;;;;;;5100722;28;19962;-74
2021/06/30 11:35:48;;;;;;;11.05;7.18;;;;;;;;;;5102378;28;20692;-74
2021/06/30 11:38:21;;;;;;;9.50;7.30;;;;;;;;;;5092170;28;20036;-74
2021/06/30 11:40:52;;;;;;;9.13;6.65;;;;;;;;;;5092818;28;20023;-74
2021/06/30 11:43:22;;;;;;;8.73;7.15;;;;;;;;;;5088608;28;20370;-73
2021/06/30 11:45:48;;;;;;;9.30;7.00;;;;;;;;;;5097887;28;20020;-73
2021/06/30 11:48:15;;;;;;;10.90;7.50;;;;;;;;;;5100837;28;20039;-74
2021/06/30 11:50:44;;;;;;;10.30;7.57;;;;;;;;;;5098660;28;20016;-73
2021/06/30 11:53:10;;;;;;;7.93;7.05;;;;;;;;;;5094685;28;20020;-74
2021/06/30 11:55:39;;;;;;;9.40;7.22;;;;;;;;;;5088172;28;20402;-74
2021/06/30 11:58:05;;;;;;;12.30;8.02;;;;;;;;;;5094771;28;20036;-74
2021/06/30 12:00:32;;;;;;;10.30;7.55;;;;;;;;;;5091313;28;20039;-74
2021/06/30 12:02:59;;;;;;;12.05;8.18;;;;;;;;;;5088611;28;20111;-73
2021/06/30 12:05:30;;;;;;;11.23;7.22;;;;;;;;;;5104087;28;20359;-73
2021/06/30 12:07:56;;;;;;;9.30;6.93;;;;;;;;;;5098011;28;20615;-73
2021/06/30 12:10:30;;;;;;;11.02;7.78;;;;;;;;;;5101377;28;20038;-74
2021/06/30 12:12:56;;;;;;;9.05;7.13;;;;;;;;;;5099715;28;20297;-73
2021/06/30 12:15:22;;;;;;;9.07;6.80;;;;;;;;;;5100751;28;20067;-74
2021/06/30 12:17:50;;;;;;;8.98;7.72;;;;;;;;;;5093542;28;20352;-74
2021/06/30 12:20:17;;;;;;;10.23;6.97;;;;;;;;;;5104290;28;20056;-73
2021/06/30 12:22:44;;;;;;;9.48;7.40;;;;;;;;;;5093064;28;20375;-74
2021/06/30 12:25:12;;;;;;;9.40;7.32;;;;;;;;;;5092064;28;20498;-73
2021/06/30 12:27:49;;;;;;;8.52;6.88;;;;;;;;;;5104217;28;20024;-74
2021/06/30 12:30:15;;;;;;;9.18;7.85;;;;;;;;;;5107585;28;20117;-73
2021/06/30 12:32:46;;;;;;;10.65;7.57;;;;;;;;;;5099654;28;20028;-74
2021/06/30 12:35:12;;;;;;;9.05;6.93;;;;;;;;;;5106097;28;20035;-74
2021/06/30 12:37:39;;;;;;;9.02;7.43;;;;;;;;;;5100376;28;20024;-75
2021/06/30 12:40:06;;;;;;;11.50;7.90;;;;;;;;;;5091029;28;20103;-74
2021/06/30 12:42:42;;;;;;;9.10;7.32;;;;;;;;;;5098115;28;20019;-73
2021/06/30 12:45:11;;;;;;;9.55;6.65;;;;;;;;;;5094975;28;20024;-76
2021/06/30 12:47:37;;;;;;;11.68;7.10;;;;;;;;;;5090123;28;20074;-68
2021/06/30 12:50:09;;;;;;;9.95;7.20;;;;;;;;;;5091292;28;20499;-74
2021/06/30 12:52:35;;;;;;;8.65;7.00;;;;;;;;;;5096621;28;20043;-74
2021/06/30 12:55:12;;;;;;;12.35;7.53;;;;;;;;;;5100804;28;20099;-74
2021/06/30 12:57:59;;;;;;;9.95;7.30;;;;;;;;;;5098418;28;20487;-74
2021/06/30 13:00:25;;;;;;;10.48;7.53;;;;;;;;;;5091239;28;20074;-73
2021/06/30 13:03:11;;;;;;;10.77;7.28;;;;;;;;;;5097146;28;20103;-74
2021/06/30 13:05:37;;;;;;;12.57;7.28;;;;;;;;;;5092558;28;20036;-74
2021/06/30 13:08:03;;;;;;;8.88;7.07;;;;;;;;;;5090473;28;20507;-74
2021/06/30 13:10:29;;;;;;;10.18;7.57;;;;;;;;;;5107770;28;20371;-73
2021/06/30 13:13:08;;;;;;;9.45;7.70;;;;;;;;;;5088340;28;20024;-74
2021/06/30 13:15:34;;;;;;;10.63;8.40;;;;;;;;;;5098881;28;20032;-73
2021/06/30 13:18:20;;;;;;;48.45;31.40;;;;;;;;;;5099018;28;20430;-74
2021/06/30 13:20:46;;;;;;;15.40;12.15;;;;;;;;;;5092316;28;20078;-73
2021/06/30 13:23:12;;;;;;;242.85;148.40;;;;;;;;;;5097317;28;20506;-73
2021/06/30 13:25:57;;;;;;;112.82;71.50;;;;;;;;;;5096595;28;20038;-73
2021/06/30 13:34:22;;;;;;;13.48;10.80;;;;;;;;;;5099315;28;20398;-75
2021/06/30 13:36:58;;;;;;;18.80;16.08;;;;;;;;;;5089695;28;20024;-74
2021/06/30 13:39:25;;;;;;;11.70;9.95;;;;;;;;;;5091865;28;20371;-75
2021/06/30 13:41:51;;;;;;;10.30;9.30;;;;;;;;;;5097976;28;20035;-74
2021/06/30 13:44:27;;;;;;;8.57;7.35;;;;;;;;;;5100324;28;20506;-74
2021/06/30 13:46:53;;;;;;;8.40;6.65;;;;;;;;;;5106169;28;20035;-74
2021/06/30 13:49:20;;;;;;;7.72;6.90;;;;;;;;;;5093332;28;20095;-74
2021/06/30 13:51:46;;;;;;;8.18;7.38;;;;;;;;;;5100072;28;20024;-74
2021/06/30 13:54:12;;;;;;;7.57;6.70;;;;;;;;;;5106543;28;20034;-74
2021/06/30 13:56:38;;;;;;;7.57;6.82;;;;;;;;;;5094546;28;20135;-74
2021/06/30 13:59:05;;;;;;;7.93;6.55;;;;;;;;;;5104478;28;20478;-74
2021/06/30 14:01:31;;;;;;;8.27;7.32;;;;;;;;;;5098561;28;20496;-74
2021/06/30 14:04:03;;;;;;;6.93;6.22;;;;;;;;;;5106525;28;20024;-75
2021/06/30 14:06:30;;;;;;;9.15;6.82;;;;;;;;;;5105031;28;20077;-74
2021/06/30 14:08:57;;;;;;;6.75;6.07;;;;;;;;;;5104638;28;20036;-74
2021/06/30 14:11:25;;;;;;;7.38;6.65;;;;;;;;;;5103882;28;20036;-74
2021/06/30 14:13:52;;;;;;;7.85;7.05;;;;;;;;;;5107337;28;20510;-74
2021/06/30 14:16:18;;;;;;;7.00;6.25;;;;;;;;;;5095047;28;20504;-74
2021/06/30 14:18:44;;;;;;;8.23;6.60;;;;;;;;;;5096654;28;20391;-74
2021/06/30 14:21:10;;;;;;;6.88;6.18;;;;;;;;;;5088547;28;20024;-74
2021/06/30 14:23:36;;;;;;;7.80;6.35;;;;;;;;;;5098940;28;20023;-74
2021/06/30 14:26:03;;;;;;;6.95;6.32;;;;;;;;;;5102186;28;20371;-72
2021/06/30 14:28:32;;;;;;;7.90;6.72;;;;;;;;;;5098180;28;20099;-74
2021/06/30 14:30:58;;;;;;;7.70;7.00;;;;;;;;;;5095198;28;20035;-73
2021/06/30 14:33:24;;;;;;;7.50;6.80;;;;;;;;;;5093398;28;20027;-74
2021/06/30 14:35:52;;;;;;;7.15;6.45;;;;;;;;;;5089086;28;20678;-74
2021/06/30 14:38:18;;;;;;;6.50;5.90;;;;;;;;;;5092126;28;20032;-74
2021/06/30 14:40:44;;;;;;;6.63;5.93;;;;;;;;;;5092444;28;20020;-74
2021/06/30 14:43:10;;;;;;;7.70;6.93;;;;;;;;;;5095337;28;20027;-73
2021/06/30 14:45:36;;;;;;;8.25;6.10;;;;;;;;;;5091878;28;20024;-73
2021/06/30 14:48:03;;;;;;;7.53;6.72;;;;;;;;;;5088972;28;20526;-73
2021/06/30 14:50:30;;;;;;;7.43;6.20;;;;;;;;;;5090352;28;20032;-74
2021/06/30 14:52:56;;;;;;;6.70;6.00;;;;;;;;;;5097117;28;20486;-74